sensor_id;sensor_type;location;lat;lon;timestamp;temperature;humidity
75738;DHT22;64356;45.638;13.764;2023-01-30T00:01:42;19.40;39.00
75738;DHT22;64356;45.638;13.764;2023-01-30T00:04:10;19.40;39.10
75738;DHT22;64356;45.638;13.764;2023-01-30T00:06:37;19.30;39.20
75738;DHT22;64356;45.638;13.764;2023-01-30T00:09:03;19.40;39.30
75738;DHT22;64356;45.638;13.764;2023-01-30T00:11:29;19.40;39.20
75738;DHT22;64356;45.638;13.764;2023-01-30T00:13:58;19.50;39.00
75738;DHT22;64356;45.638;13.764;2023-01-30T00:16:24;19.70;38.80
75738;DHT22;64356;45.638;13.764;2023-01-30T00:18:50;19.80;38.50
75738;DHT22;64356;45.638;13.764;2023-01-30T00:21:16;19.90;38.30
75738;DHT22;64356;45.638;13.764;2023-01-30T00:23:43;19.90;38.30
75738;DHT22;64356;45.638;13.764;2023-01-30T00:26:09;20.00;38.20
75738;DHT22;64356;45.638;13.764;2023-01-30T00:28:35;20.00;38.20
75738;DHT22;64356;45.638;13.764;2023-01-30T00:31:01;19.90;38.00
75738;DHT22;64356;45.638;13.764;2023-01-30T00:33:27;20.00;38.00
75738;DHT22;64356;45.638;13.764;2023-01-30T00:35:55;20.00;38.00
75738;DHT22;64356;45.638;13.764;2023-01-30T00:38:22;20.00;38.10
75738;DHT22;64356;45.638;13.764;2023-01-30T00:40:48;20.00;38.00
75738;DHT22;64356;45.638;13.764;2023-01-30T00:43:18;20.00;38.00
75738;DHT22;64356;45.638;13.764;2023-01-30T00:46:09;20.00;38.00
75738;DHT22;64356;45.638;13.764;2023-01-30T00:49:09;20.00;38.00
75738;DHT22;64356;45.638;13.764;2023-01-30T00:51:35;20.00;38.00
75738;DHT22;64356;45.638;13.764;2023-01-30T00:54:00;20.00;37.90
75738;DHT22;64356;45.638;13.764;2023-01-30T00:56:26;20.00;38.00
75738;DHT22;64356;45.638;13.764;2023-01-30T00:58:52;19.90;38.00
75738;DHT22;64356;45.638;13.764;2023-01-30T01:01:18;20.00;38.00
75738;DHT22;64356;45.638;13.764;2023-01-30T01:03:43;20.00;38.10
75738;DHT22;64356;45.638;13.764;2023-01-30T01:06:09;19.90;38.00
75738;DHT22;64356;45.638;13.764;2023-01-30T01:08:35;20.00;38.10
75738;DHT22;64356;45.638;13.764;2023-01-30T01:11:00;20.00;38.10
75738;DHT22;64356;45.638;13.764;2023-01-30T01:13:26;19.90;38.00
75738;DHT22;64356;45.638;13.764;2023-01-30T01:15:52;19.90;38.10
75738;DHT22;64356;45.638;13.764;2023-01-30T01:18:18;19.90;38.10
75738;DHT22;64356;45.638;13.764;2023-01-30T01:20:43;19.90;38.00
75738;DHT22;64356;45.638;13.764;2023-01-30T01:23:09;19.90;38.10
75738;DHT22;64356;45.638;13.764;2023-01-30T01:25:35;19.90;38.10
75738;DHT22;64356;45.638;13.764;2023-01-30T01:28:01;19.90;38.10
75738;DHT22;64356;45.638;13.764;2023-01-30T01:30:27;19.90;38.00
75738;DHT22;64356;45.638;13.764;2023-01-30T01:32:52;19.90;38.10
75738;DHT22;64356;45.638;13.764;2023-01-30T01:35:18;19.90;38.10
75738;DHT22;64356;45.638;13.764;2023-01-30T01:37:44;19.90;38.10
75738;DHT22;64356;45.638;13.764;2023-01-30T01:40:17;19.90;38.10
75738;DHT22;64356;45.638;13.764;2023-01-30T01:43:07;19.90;38.10
75738;DHT22;64356;45.638;13.764;2023-01-30T01:45:38;19.90;38.10
75738;DHT22;64356;45.638;13.764;2023-01-30T01:48:28;19.90;38.00
75738;DHT22;64356;45.638;13.764;2023-01-30T01:51:01;20.00;38.00
75738;DHT22;64356;45.638;13.764;2023-01-30T01:53:33;19.90;37.90
75738;DHT22;64356;45.638;13.764;2023-01-30T01:56:01;20.00;37.90
75738;DHT22;64356;45.638;13.764;2023-01-30T01:58:38;20.00;37.80
75738;DHT22;64356;45.638;13.764;2023-01-30T02:01:05;20.00;37.80
75738;DHT22;64356;45.638;13.764;2023-01-30T02:03:36;20.00;37.80
75738;DHT22;64356;45.638;13.764;2023-01-30T02:06:03;20.00;37.70
75738;DHT22;64356;45.638;13.764;2023-01-30T02:08:33;20.00;37.70
75738;DHT22;64356;45.638;13.764;2023-01-30T02:13:45;20.00;37.70
75738;DHT22;64356;45.638;13.764;2023-01-30T02:16:11;20.00;37.60
75738;DHT22;64356;45.638;13.764;2023-01-30T02:18:39;20.00;37.70
75738;DHT22;64356;45.638;13.764;2023-01-30T02:21:49;20.00;37.70
75738;DHT22;64356;45.638;13.764;2023-01-30T02:30:11;20.00;37.70
75738;DHT22;64356;45.638;13.764;2023-01-30T02:38:38;20.00;37.60
75738;DHT22;64356;45.638;13.764;2023-01-30T02:44:05;20.00;38.00
75738;DHT22;64356;45.638;13.764;2023-01-30T02:46:38;20.00;37.60
75738;DHT22;64356;45.638;13.764;2023-01-30T02:49:15;20.00;37.60
75738;DHT22;64356;45.638;13.764;2023-01-30T02:51:45;20.00;37.60
75738;DHT22;64356;45.638;13.764;2023-01-30T02:54:12;20.00;37.60
75738;DHT22;64356;45.638;13.764;2023-01-30T02:56:49;20.00;37.60
75738;DHT22;64356;45.638;13.764;2023-01-30T02:59:20;20.00;37.60
75738;DHT22;64356;45.638;13.764;2023-01-30T03:07:49;20.00;37.60
75738;DHT22;64356;45.638;13.764;2023-01-30T03:13:19;20.10;37.50
75738;DHT22;64356;45.638;13.764;2023-01-30T03:16:11;20.30;37.10
75738;DHT22;64356;45.638;13.764;2023-01-30T03:18:34;20.50;36.70
75738;DHT22;64356;45.638;13.764;2023-01-30T03:21:05;20.70;36.40
75738;DHT22;64356;45.638;13.764;2023-01-30T03:23:31;20.80;36.20
75738;DHT22;64356;45.638;13.764;2023-01-30T03:25:58;20.80;36.20
75738;DHT22;64356;45.638;13.764;2023-01-30T03:28:25;20.80;36.10
75738;DHT22;64356;45.638;13.764;2023-01-30T03:30:50;20.80;36.20
75738;DHT22;64356;45.638;13.764;2023-01-30T03:33:16;20.80;36.10
75738;DHT22;64356;45.638;13.764;2023-01-30T03:35:42;20.80;36.00
75738;DHT22;64356;45.638;13.764;2023-01-30T03:38:09;20.90;36.10
75738;DHT22;64356;45.638;13.764;2023-01-30T03:40:35;20.90;36.00
75738;DHT22;64356;45.638;13.764;2023-01-30T03:43:01;20.90;35.90
75738;DHT22;64356;45.638;13.764;2023-01-30T03:45:27;20.90;35.80
75738;DHT22;64356;45.638;13.764;2023-01-30T03:47:52;20.90;35.80
75738;DHT22;64356;45.638;13.764;2023-01-30T03:50:18;21.00;35.80
75738;DHT22;64356;45.638;13.764;2023-01-30T03:52:44;21.00;35.80
75738;DHT22;64356;45.638;13.764;2023-01-30T03:55:10;21.00;35.70
75738;DHT22;64356;45.638;13.764;2023-01-30T03:57:36;21.00;35.70
75738;DHT22;64356;45.638;13.764;2023-01-30T04:00:03;21.00;35.70
75738;DHT22;64356;45.638;13.764;2023-01-30T04:02:29;21.00;35.60
75738;DHT22;64356;45.638;13.764;2023-01-30T04:04:55;21.00;35.50
75738;DHT22;64356;45.638;13.764;2023-01-30T04:07:20;21.10;35.60
75738;DHT22;64356;45.638;13.764;2023-01-30T04:09:46;21.00;35.50
75738;DHT22;64356;45.638;13.764;2023-01-30T04:12:12;21.00;35.50
75738;DHT22;64356;45.638;13.764;2023-01-30T04:14:38;21.00;35.50
75738;DHT22;64356;45.638;13.764;2023-01-30T04:17:04;21.10;35.60
75738;DHT22;64356;45.638;13.764;2023-01-30T04:19:29;21.00;35.50
75738;DHT22;64356;45.638;13.764;2023-01-30T04:21:55;21.00;35.50
75738;DHT22;64356;45.638;13.764;2023-01-30T04:24:21;21.00;35.50
75738;DHT22;64356;45.638;13.764;2023-01-30T04:26:46;21.10;35.50
75738;DHT22;64356;45.638;13.764;2023-01-30T04:29:12;21.10;35.50
75738;DHT22;64356;45.638;13.764;2023-01-30T04:31:38;21.10;35.50
75738;DHT22;64356;45.638;13.764;2023-01-30T04:34:03;21.10;35.50
75738;DHT22;64356;45.638;13.764;2023-01-30T04:36:29;21.10;35.50
75738;DHT22;64356;45.638;13.764;2023-01-30T04:38:55;21.10;35.50
75738;DHT22;64356;45.638;13.764;2023-01-30T04:41:22;21.10;35.50
75738;DHT22;64356;45.638;13.764;2023-01-30T04:43:48;21.10;35.40
75738;DHT22;64356;45.638;13.764;2023-01-30T04:46:14;21.20;35.40
75738;DHT22;64356;45.638;13.764;2023-01-30T04:48:39;21.10;35.40
75738;DHT22;64356;45.638;13.764;2023-01-30T04:51:05;21.20;35.40
75738;DHT22;64356;45.638;13.764;2023-01-30T04:53:31;21.20;35.30
75738;DHT22;64356;45.638;13.764;2023-01-30T04:55:56;21.20;35.30
75738;DHT22;64356;45.638;13.764;2023-01-30T04:58:22;21.20;35.30
75738;DHT22;64356;45.638;13.764;2023-01-30T05:00:48;21.20;35.20
75738;DHT22;64356;45.638;13.764;2023-01-30T05:03:14;21.20;35.20
75738;DHT22;64356;45.638;13.764;2023-01-30T05:05:40;21.30;35.50
75738;DHT22;64356;45.638;13.764;2023-01-30T05:08:06;21.20;35.20
75738;DHT22;64356;45.638;13.764;2023-01-30T05:10:32;21.30;35.20
75738;DHT22;64356;45.638;13.764;2023-01-30T05:13:02;21.30;35.20
75738;DHT22;64356;45.638;13.764;2023-01-30T05:15:28;21.20;35.20
75738;DHT22;64356;45.638;13.764;2023-01-30T05:17:54;21.20;35.20
75738;DHT22;64356;45.638;13.764;2023-01-30T05:20:19;21.30;35.10
75738;DHT22;64356;45.638;13.764;2023-01-30T05:22:45;21.30;35.10
75738;DHT22;64356;45.638;13.764;2023-01-30T05:25:11;21.30;35.10
75738;DHT22;64356;45.638;13.764;2023-01-30T05:27:36;21.30;34.90
75738;DHT22;64356;45.638;13.764;2023-01-30T05:30:03;21.40;34.90
75738;DHT22;64356;45.638;13.764;2023-01-30T05:32:29;21.50;34.80
75738;DHT22;64356;45.638;13.764;2023-01-30T05:34:55;21.50;34.70
75738;DHT22;64356;45.638;13.764;2023-01-30T05:37:21;21.50;34.60
75738;DHT22;64356;45.638;13.764;2023-01-30T05:39:46;21.60;34.60
75738;DHT22;64356;45.638;13.764;2023-01-30T05:42:13;21.60;34.50
75738;DHT22;64356;45.638;13.764;2023-01-30T05:44:39;21.70;34.40
75738;DHT22;64356;45.638;13.764;2023-01-30T05:47:05;21.70;34.40
75738;DHT22;64356;45.638;13.764;2023-01-30T05:49:30;21.80;34.30
75738;DHT22;64356;45.638;13.764;2023-01-30T05:51:56;21.90;34.30
75738;DHT22;64356;45.638;13.764;2023-01-30T05:54:22;21.90;34.20
75738;DHT22;64356;45.638;13.764;2023-01-30T05:56:50;21.90;34.10
75738;DHT22;64356;45.638;13.764;2023-01-30T05:59:16;22.00;33.90
75738;DHT22;64356;45.638;13.764;2023-01-30T06:01:45;22.00;33.90
75738;DHT22;64356;45.638;13.764;2023-01-30T06:04:11;22.10;33.80
75738;DHT22;64356;45.638;13.764;2023-01-30T06:06:36;22.10;33.70
75738;DHT22;64356;45.638;13.764;2023-01-30T06:09:02;22.20;33.70
75738;DHT22;64356;45.638;13.764;2023-01-30T06:11:29;22.20;33.70
75738;DHT22;64356;45.638;13.764;2023-01-30T06:13:54;22.30;33.50
75738;DHT22;64356;45.638;13.764;2023-01-30T06:16:20;22.30;33.40
75738;DHT22;64356;45.638;13.764;2023-01-30T06:18:46;22.30;33.40
75738;DHT22;64356;45.638;13.764;2023-01-30T06:21:12;22.40;32.90
75738;DHT22;64356;45.638;13.764;2023-01-30T06:23:39;22.40;32.90
75738;DHT22;64356;45.638;13.764;2023-01-30T06:26:05;22.40;33.00
75738;DHT22;64356;45.638;13.764;2023-01-30T06:28:31;22.50;33.10
75738;DHT22;64356;45.638;13.764;2023-01-30T06:30:57;22.40;33.50
75738;DHT22;64356;45.638;13.764;2023-01-30T06:33:23;22.40;33.70
75738;DHT22;64356;45.638;13.764;2023-01-30T06:35:50;22.50;33.60
75738;DHT22;64356;45.638;13.764;2023-01-30T06:38:16;22.40;33.50
75738;DHT22;64356;45.638;13.764;2023-01-30T06:40:46;22.30;33.80
75738;DHT22;64356;45.638;13.764;2023-01-30T06:43:13;22.30;34.20
75738;DHT22;64356;45.638;13.764;2023-01-30T06:45:39;22.30;33.50
75738;DHT22;64356;45.638;13.764;2023-01-30T06:48:05;22.20;33.70
75738;DHT22;64356;45.638;13.764;2023-01-30T06:50:31;22.20;33.80
75738;DHT22;64356;45.638;13.764;2023-01-30T06:52:57;22.20;33.70
75738;DHT22;64356;45.638;13.764;2023-01-30T06:55:26;22.20;33.30
75738;DHT22;64356;45.638;13.764;2023-01-30T06:58:05;22.20;33.10
75738;DHT22;64356;45.638;13.764;2023-01-30T07:00:31;22.00;28.30
75738;DHT22;64356;45.638;13.764;2023-01-30T07:02:57;21.50;26.80
75738;DHT22;64356;45.638;13.764;2023-01-30T07:05:24;21.00;26.80
75738;DHT22;64356;45.638;13.764;2023-01-30T07:07:50;20.80;28.60
75738;DHT22;64356;45.638;13.764;2023-01-30T07:10:16;20.90;29.80
75738;DHT22;64356;45.638;13.764;2023-01-30T07:12:41;21.10;30.30
75738;DHT22;64356;45.638;13.764;2023-01-30T07:15:07;21.30;31.00
75738;DHT22;64356;45.638;13.764;2023-01-30T07:17:33;21.60;32.00
75738;DHT22;64356;45.638;13.764;2023-01-30T07:19:59;21.80;32.30
75738;DHT22;64356;45.638;13.764;2023-01-30T07:22:25;21.90;32.20
75738;DHT22;64356;45.638;13.764;2023-01-30T07:24:51;22.00;32.90
75738;DHT22;64356;45.638;13.764;2023-01-30T07:27:16;22.10;33.00
75738;DHT22;64356;45.638;13.764;2023-01-30T07:29:42;22.10;33.30
75738;DHT22;64356;45.638;13.764;2023-01-30T07:32:14;22.20;33.30
75738;DHT22;64356;45.638;13.764;2023-01-30T07:34:40;22.20;33.20
75738;DHT22;64356;45.638;13.764;2023-01-30T07:37:06;22.30;33.10
75738;DHT22;64356;45.638;13.764;2023-01-30T07:39:32;22.30;33.40
75738;DHT22;64356;45.638;13.764;2023-01-30T07:41:59;22.30;33.70
75738;DHT22;64356;45.638;13.764;2023-01-30T07:44:25;22.20;33.90
75738;DHT22;64356;45.638;13.764;2023-01-30T07:46:51;22.20;34.10
75738;DHT22;64356;45.638;13.764;2023-01-30T07:49:16;22.10;34.50
75738;DHT22;64356;45.638;13.764;2023-01-30T07:51:42;22.10;34.60
75738;DHT22;64356;45.638;13.764;2023-01-30T07:54:08;22.00;34.80
75738;DHT22;64356;45.638;13.764;2023-01-30T07:56:34;22.00;34.80
75738;DHT22;64356;45.638;13.764;2023-01-30T07:58:59;21.90;34.90
75738;DHT22;64356;45.638;13.764;2023-01-30T08:01:27;21.70;34.50
75738;DHT22;64356;45.638;13.764;2023-01-30T08:03:52;21.70;34.70
75738;DHT22;64356;45.638;13.764;2023-01-30T08:06:18;21.60;35.20
75738;DHT22;64356;45.638;13.764;2023-01-30T08:08:44;21.60;35.40
75738;DHT22;64356;45.638;13.764;2023-01-30T08:11:10;21.60;35.40
75738;DHT22;64356;45.638;13.764;2023-01-30T08:13:36;21.60;35.70
75738;DHT22;64356;45.638;13.764;2023-01-30T08:16:04;21.60;35.60
75738;DHT22;64356;45.638;13.764;2023-01-30T08:18:31;21.60;35.80
75738;DHT22;64356;45.638;13.764;2023-01-30T08:20:58;21.60;35.90
75738;DHT22;64356;45.638;13.764;2023-01-30T08:23:24;21.70;36.20
75738;DHT22;64356;45.638;13.764;2023-01-30T08:25:57;21.70;36.00
75738;DHT22;64356;45.638;13.764;2023-01-30T08:28:24;21.70;36.70
75738;DHT22;64356;45.638;13.764;2023-01-30T08:30:50;21.70;36.40
75738;DHT22;64356;45.638;13.764;2023-01-30T08:33:19;21.70;36.50
75738;DHT22;64356;45.638;13.764;2023-01-30T08:35:46;21.70;35.90
75738;DHT22;64356;45.638;13.764;2023-01-30T08:38:11;21.70;36.20
75738;DHT22;64356;45.638;13.764;2023-01-30T08:40:37;21.60;36.40
75738;DHT22;64356;45.638;13.764;2023-01-30T08:43:04;21.60;36.50
75738;DHT22;64356;45.638;13.764;2023-01-30T08:45:30;21.60;36.60
75738;DHT22;64356;45.638;13.764;2023-01-30T08:48:00;21.60;36.90
75738;DHT22;64356;45.638;13.764;2023-01-30T08:50:26;21.70;37.50
75738;DHT22;64356;45.638;13.764;2023-01-30T08:52:51;21.70;37.00
75738;DHT22;64356;45.638;13.764;2023-01-30T08:55:17;21.70;37.00
75738;DHT22;64356;45.638;13.764;2023-01-30T08:57:43;21.70;36.90
75738;DHT22;64356;45.638;13.764;2023-01-30T09:00:09;21.70;36.40
75738;DHT22;64356;45.638;13.764;2023-01-30T09:02:35;21.80;36.00
75738;DHT22;64356;45.638;13.764;2023-01-30T09:05:02;21.80;34.00
75738;DHT22;64356;45.638;13.764;2023-01-30T09:07:28;21.80;34.90
75738;DHT22;64356;45.638;13.764;2023-01-30T09:09:54;21.90;35.30
75738;DHT22;64356;45.638;13.764;2023-01-30T09:12:20;22.00;35.50
75738;DHT22;64356;45.638;13.764;2023-01-30T09:14:46;22.10;35.70
75738;DHT22;64356;45.638;13.764;2023-01-30T09:17:12;22.20;35.70
75738;DHT22;64356;45.638;13.764;2023-01-30T09:19:37;22.20;35.40
75738;DHT22;64356;45.638;13.764;2023-01-30T09:22:04;22.30;35.80
75738;DHT22;64356;45.638;13.764;2023-01-30T09:24:31;22.30;35.60
75738;DHT22;64356;45.638;13.764;2023-01-30T09:26:57;22.40;36.10
75738;DHT22;64356;45.638;13.764;2023-01-30T09:29:24;22.40;36.00
75738;DHT22;64356;45.638;13.764;2023-01-30T09:31:50;22.30;36.20
75738;DHT22;64356;45.638;13.764;2023-01-30T09:34:15;22.30;37.00
75738;DHT22;64356;45.638;13.764;2023-01-30T09:36:41;22.30;36.70
75738;DHT22;64356;45.638;13.764;2023-01-30T09:39:07;22.20;36.90
75738;DHT22;64356;45.638;13.764;2023-01-30T09:44:59;22.00;37.80
75738;DHT22;64356;45.638;13.764;2023-01-30T09:50:03;21.90;37.30
75738;DHT22;64356;45.638;13.764;2023-01-30T09:52:45;21.90;37.70
75738;DHT22;64356;45.638;13.764;2023-01-30T09:55:24;21.80;37.90
75738;DHT22;64356;45.638;13.764;2023-01-30T09:57:51;21.80;37.60
75738;DHT22;64356;45.638;13.764;2023-01-30T10:00:34;21.80;38.30
75738;DHT22;64356;45.638;13.764;2023-01-30T10:05:54;21.90;37.70
75738;DHT22;64356;45.638;13.764;2023-01-30T10:11:20;21.90;37.50
75738;DHT22;64356;45.638;13.764;2023-01-30T10:19:18;22.00;38.50
75738;DHT22;64356;45.638;13.764;2023-01-30T10:27:37;22.00;38.70
75738;DHT22;64356;45.638;13.764;2023-01-30T10:30:12;22.00;38.80
75738;DHT22;64356;45.638;13.764;2023-01-30T10:32:47;22.10;38.50
75738;DHT22;64356;45.638;13.764;2023-01-30T10:35:18;22.10;38.60
75738;DHT22;64356;45.638;13.764;2023-01-30T10:37:57;22.20;39.20
75738;DHT22;64356;45.638;13.764;2023-01-30T10:40:41;22.30;38.90
75738;DHT22;64356;45.638;13.764;2023-01-30T10:46:21;22.40;38.90
75738;DHT22;64356;45.638;13.764;2023-01-30T10:49:12;22.40;38.70
75738;DHT22;64356;45.638;13.764;2023-01-30T10:54:37;22.40;39.40
75738;DHT22;64356;45.638;13.764;2023-01-30T10:59:54;22.20;34.00
75738;DHT22;64356;45.638;13.764;2023-01-30T11:05:21;22.00;36.60
75738;DHT22;64356;45.638;13.764;2023-01-30T11:07:49;22.10;37.30
75738;DHT22;64356;45.638;13.764;2023-01-30T11:12:45;22.30;37.50
75738;DHT22;64356;45.638;13.764;2023-01-30T11:15:11;22.30;37.80
75738;DHT22;64356;45.638;13.764;2023-01-30T11:17:44;22.30;37.70
75738;DHT22;64356;45.638;13.764;2023-01-30T11:20:14;22.40;37.90
75738;DHT22;64356;45.638;13.764;2023-01-30T11:23:03;22.40;38.50
75738;DHT22;64356;45.638;13.764;2023-01-30T11:25:29;22.40;37.40
75738;DHT22;64356;45.638;13.764;2023-01-30T11:28:01;22.40;38.00
75738;DHT22;64356;45.638;13.764;2023-01-30T11:30:34;22.40;37.50
75738;DHT22;64356;45.638;13.764;2023-01-30T11:33:16;22.30;37.60
75738;DHT22;64356;45.638;13.764;2023-01-30T11:35:54;22.30;37.50
75738;DHT22;64356;45.638;13.764;2023-01-30T11:38:23;22.30;38.20
75738;DHT22;64356;45.638;13.764;2023-01-30T11:40:49;22.30;38.00
75738;DHT22;64356;45.638;13.764;2023-01-30T11:43:31;22.30;38.30
75738;DHT22;64356;45.638;13.764;2023-01-30T11:46:08;22.40;38.80
75738;DHT22;64356;45.638;13.764;2023-01-30T11:49:04;22.40;38.90
75738;DHT22;64356;45.638;13.764;2023-01-30T11:51:29;22.40;39.20
75738;DHT22;64356;45.638;13.764;2023-01-30T11:54:06;22.50;39.30
75738;DHT22;64356;45.638;13.764;2023-01-30T11:56:39;22.50;39.40
75738;DHT22;64356;45.638;13.764;2023-01-30T12:02:22;22.70;38.70
75738;DHT22;64356;45.638;13.764;2023-01-30T12:04:59;22.70;37.40
75738;DHT22;64356;45.638;13.764;2023-01-30T12:07:33;22.80;37.40
75738;DHT22;64356;45.638;13.764;2023-01-30T12:10:00;22.80;37.70
75738;DHT22;64356;45.638;13.764;2023-01-30T12:18:12;23.10;37.60
75738;DHT22;64356;45.638;13.764;2023-01-30T12:26:28;23.30;38.00
75738;DHT22;64356;45.638;13.764;2023-01-30T12:31:38;23.40;37.80
75738;DHT22;64356;45.638;13.764;2023-01-30T12:34:08;23.40;37.90
75738;DHT22;64356;45.638;13.764;2023-01-30T12:47:34;23.40;37.90
75738;DHT22;64356;45.638;13.764;2023-01-30T12:55:23;23.40;33.00
75738;DHT22;64356;45.638;13.764;2023-01-30T12:57:59;22.90;29.90
75738;DHT22;64356;45.638;13.764;2023-01-30T13:00:30;22.20;29.40
75738;DHT22;64356;45.638;13.764;2023-01-30T13:06:05;21.30;31.00
75738;DHT22;64356;45.638;13.764;2023-01-30T13:08:45;21.20;31.20
75738;DHT22;64356;45.638;13.764;2023-01-30T13:20:14;21.30;31.50
75738;DHT22;64356;45.638;13.764;2023-01-30T13:22:55;21.40;31.30
75738;DHT22;64356;45.638;13.764;2023-01-30T13:28:37;21.60;31.90
75738;DHT22;64356;45.638;13.764;2023-01-30T13:31:10;21.80;32.40
75738;DHT22;64356;45.638;13.764;2023-01-30T13:33:43;22.20;33.30
75738;DHT22;64356;45.638;13.764;2023-01-30T13:36:22;22.50;33.80
75738;DHT22;64356;45.638;13.764;2023-01-30T13:41:19;23.00;34.10
75738;DHT22;64356;45.638;13.764;2023-01-30T13:43:51;23.10;34.60
75738;DHT22;64356;45.638;13.764;2023-01-30T13:46:23;23.20;34.90
75738;DHT22;64356;45.638;13.764;2023-01-30T13:51:32;23.40;35.20
75738;DHT22;64356;45.638;13.764;2023-01-30T13:56:44;23.60;35.50
75738;DHT22;64356;45.638;13.764;2023-01-30T14:09:41;23.60;36.10
75738;DHT22;64356;45.638;13.764;2023-01-30T14:12:17;23.60;36.30
75738;DHT22;64356;45.638;13.764;2023-01-30T14:14:58;23.50;36.20
75738;DHT22;64356;45.638;13.764;2023-01-30T14:17:25;23.40;36.40
75738;DHT22;64356;45.638;13.764;2023-01-30T14:20:04;23.40;36.70
75738;DHT22;64356;45.638;13.764;2023-01-30T14:22:50;23.20;36.80
75738;DHT22;64356;45.638;13.764;2023-01-30T14:30:35;22.60;36.20
75738;DHT22;64356;45.638;13.764;2023-01-30T14:38:21;22.00;35.40
75738;DHT22;64356;45.638;13.764;2023-01-30T14:45:58;21.50;36.80
75738;DHT22;64356;45.638;13.764;2023-01-30T14:51:44;21.00;35.00
75738;DHT22;64356;45.638;13.764;2023-01-30T14:56:51;20.50;36.40
75738;DHT22;64356;45.638;13.764;2023-01-30T14:59:45;20.40;37.40
75738;DHT22;64356;45.638;13.764;2023-01-30T15:05:04;20.20;37.90
75738;DHT22;64356;45.638;13.764;2023-01-30T15:07:52;20.20;38.20
75738;DHT22;64356;45.638;13.764;2023-01-30T15:16:39;20.10;37.20
75738;DHT22;64356;45.638;13.764;2023-01-30T15:21:59;20.30;37.10
75738;DHT22;64356;45.638;13.764;2023-01-30T15:27:29;20.40;37.10
75738;DHT22;64356;45.638;13.764;2023-01-30T15:32:45;20.40;37.10
75738;DHT22;64356;45.638;13.764;2023-01-30T15:35:20;20.40;37.50
75738;DHT22;64356;45.638;13.764;2023-01-30T15:37:52;20.40;37.80
75738;DHT22;64356;45.638;13.764;2023-01-30T15:40:22;20.40;37.50
75738;DHT22;64356;45.638;13.764;2023-01-30T15:51:28;20.30;38.10
75738;DHT22;64356;45.638;13.764;2023-01-30T15:53:57;20.30;38.30
75738;DHT22;64356;45.638;13.764;2023-01-30T15:56:27;20.30;38.50
75738;DHT22;64356;45.638;13.764;2023-01-30T15:58:56;20.20;38.60
75738;DHT22;64356;45.638;13.764;2023-01-30T16:01:22;20.20;39.00
75738;DHT22;64356;45.638;13.764;2023-01-30T16:03:49;20.10;39.00
75738;DHT22;64356;45.638;13.764;2023-01-30T16:06:30;20.10;39.40
75738;DHT22;64356;45.638;13.764;2023-01-30T16:09:05;20.10;39.40
75738;DHT22;64356;45.638;13.764;2023-01-30T16:11:39;20.00;39.30
75738;DHT22;64356;45.638;13.764;2023-01-30T16:14:27;20.00;39.40
75738;DHT22;64356;45.638;13.764;2023-01-30T16:16:57;20.00;39.60
75738;DHT22;64356;45.638;13.764;2023-01-30T16:19:28;19.90;39.70
75738;DHT22;64356;45.638;13.764;2023-01-30T16:21:59;19.90;39.80
75738;DHT22;64356;45.638;13.764;2023-01-30T16:24:30;19.90;40.20
75738;DHT22;64356;45.638;13.764;2023-01-30T16:27:04;19.80;40.20
75738;DHT22;64356;45.638;13.764;2023-01-30T16:29:33;19.80;40.20
75738;DHT22;64356;45.638;13.764;2023-01-30T16:32:13;19.70;40.60
75738;DHT22;64356;45.638;13.764;2023-01-30T16:34:39;19.70;40.80
75738;DHT22;64356;45.638;13.764;2023-01-30T16:37:25;19.60;40.90
75738;DHT22;64356;45.638;13.764;2023-01-30T16:40:13;19.60;41.30
75738;DHT22;64356;45.638;13.764;2023-01-30T16:42:39;19.50;41.50
75738;DHT22;64356;45.638;13.764;2023-01-30T16:47:37;19.50;41.70
75738;DHT22;64356;45.638;13.764;2023-01-30T16:50:04;19.40;41.70
75738;DHT22;64356;45.638;13.764;2023-01-30T16:52:46;19.40;41.60
75738;DHT22;64356;45.638;13.764;2023-01-30T16:55:23;19.40;41.60
75738;DHT22;64356;45.638;13.764;2023-01-30T16:58:01;19.40;41.40
75738;DHT22;64356;45.638;13.764;2023-01-30T17:00:36;19.30;41.40
75738;DHT22;64356;45.638;13.764;2023-01-30T17:03:23;19.30;41.30
75738;DHT22;64356;45.638;13.764;2023-01-30T17:05:50;19.30;41.30
75738;DHT22;64356;45.638;13.764;2023-01-30T17:17:00;19.00;40.00
75738;DHT22;64356;45.638;13.764;2023-01-30T17:19:26;19.00;40.10
75738;DHT22;64356;45.638;13.764;2023-01-30T17:21:52;19.00;40.50
75738;DHT22;64356;45.638;13.764;2023-01-30T17:24:20;18.90;40.70
75738;DHT22;64356;45.638;13.764;2023-01-30T17:26:49;18.90;40.90
75738;DHT22;64356;45.638;13.764;2023-01-30T17:29:15;18.90;41.00
75738;DHT22;64356;45.638;13.764;2023-01-30T17:31:47;18.90;41.10
75738;DHT22;64356;45.638;13.764;2023-01-30T17:34:14;18.90;41.40
75738;DHT22;64356;45.638;13.764;2023-01-30T17:36:41;18.90;41.30
75738;DHT22;64356;45.638;13.764;2023-01-30T17:39:14;18.90;41.60
75738;DHT22;64356;45.638;13.764;2023-01-30T17:41:40;18.90;41.60
75738;DHT22;64356;45.638;13.764;2023-01-30T17:44:07;18.90;40.60
75738;DHT22;64356;45.638;13.764;2023-01-30T17:46:37;18.80;40.60
75738;DHT22;64356;45.638;13.764;2023-01-30T17:49:05;18.80;41.00
75738;DHT22;64356;45.638;13.764;2023-01-30T17:51:31;18.80;42.00
75738;DHT22;64356;45.638;13.764;2023-01-30T17:53:57;18.80;42.10
75738;DHT22;64356;45.638;13.764;2023-01-30T17:56:30;18.80;42.40
75738;DHT22;64356;45.638;13.764;2023-01-30T17:58:57;18.80;42.40
75738;DHT22;64356;45.638;13.764;2023-01-30T18:01:22;18.80;42.40
75738;DHT22;64356;45.638;13.764;2023-01-30T18:03:48;18.80;42.00
75738;DHT22;64356;45.638;13.764;2023-01-30T18:06:14;18.80;41.90
75738;DHT22;64356;45.638;13.764;2023-01-30T18:08:41;18.80;41.80
75738;DHT22;64356;45.638;13.764;2023-01-30T18:11:07;18.80;41.90
75738;DHT22;64356;45.638;13.764;2023-01-30T18:13:37;18.70;41.90
75738;DHT22;64356;45.638;13.764;2023-01-30T18:16:03;18.70;42.50
75738;DHT22;64356;45.638;13.764;2023-01-30T18:18:29;18.70;42.50
75738;DHT22;64356;45.638;13.764;2023-01-30T18:20:55;18.70;42.60
75738;DHT22;64356;45.638;13.764;2023-01-30T18:23:21;18.70;42.90
75738;DHT22;64356;45.638;13.764;2023-01-30T18:25:46;18.60;42.70
75738;DHT22;64356;45.638;13.764;2023-01-30T18:28:12;18.60;42.90
75738;DHT22;64356;45.638;13.764;2023-01-30T18:30:38;18.60;42.80
75738;DHT22;64356;45.638;13.764;2023-01-30T18:33:04;18.60;43.00
75738;DHT22;64356;45.638;13.764;2023-01-30T18:35:30;18.50;42.80
75738;DHT22;64356;45.638;13.764;2023-01-30T18:37:55;18.50;43.10